Time;durP1;ratioP1;P1;durP2;ratioP2;P2;SDS_P1;SDS_P2;PMS_P1;PMS_P2;Temp;Humidity;BMP_temperature;BMP_pressure;BME280_temperature;BME280_humidity;BME280_pressure;Samples;Min_cycle;Max_cycle;Signal;HPM_P1;HPM_P2
2022/07/15 00:04:10;;;;;;;0.38;0.38;;;17.20;85.20;;;;;;10289870;28;20066;-90
2022/07/15 00:09:12;;;;;;;6.13;0.30;;;17.00;86.00;;;;;;10289564;28;20050;-90
2022/07/15 00:14:14;;;;;;;0.50;0.20;;;16.90;87.70;;;;;;10307787;28;20073;-90
2022/07/15 00:19:16;;;;;;;0.85;0.20;;;16.70;87.40;;;;;;10286303;28;20084;-91
2022/07/15 00:24:18;;;;;;;1.02;0.30;;;16.70;87.10;;;;;;10310851;28;20057;-91
2022/07/15 00:29:20;;;;;;;0.75;0.20;;;16.70;86.80;;;;;;10304372;28;20047;-92
2022/07/15 00:34:21;;;;;;;1.63;0.30;;;16.70;88.20;;;;;;10291636;28;20532;-91
2022/07/15 00:39:23;;;;;;;0.30;0.20;;;16.20;89.20;;;;;;10306307;28;20066;-91
2022/07/15 00:44:25;;;;;;;1.17;0.22;;;16.10;89.80;;;;;;10323743;28;20054;-91
2022/07/15 00:49:27;;;;;;;0.63;0.30;;;16.30;89.70;;;;;;10291829;28;20492;-91
2022/07/15 00:54:30;;;;;;;5.63;0.30;;;16.30;89.60;;;;;;10302677;28;20054;-91
2022/07/15 00:59:34;;;;;;;3.78;0.40;;;16.40;89.70;;;;;;10288672;28;20137;-91
2022/07/15 01:04:38;;;;;;;0.65;0.28;;;16.50;90.00;;;;;;10297004;28;20468;-91
2022/07/15 01:09:39;;;;;;;1.35;0.20;;;16.50;90.20;;;;;;10303496;28;20413;-92
2022/07/15 01:14:41;;;;;;;0.77;0.30;;;16.40;90.30;;;;;;10292355;28;20050;-92
2022/07/15 01:19:43;;;;;;;2.53;0.30;;;16.30;90.50;;;;;;10154445;28;20506;-92
2022/07/15 01:24:46;;;;;;;2.67;0.40;;;16.20;90.40;;;;;;10247430;28;20505;-92
2022/07/15 01:29:55;;;;;;;1.85;0.30;;;16.20;90.50;;;;;;10193443;28;20059;-92
2022/07/15 01:35:07;;;;;;;;;;;16.20;91.00;;;;;;9910485;28;20051;-92
2022/07/15 01:40:23;;;;;;;1.20;0.30;;;16.10;91.60;;;;;;10175185;28;19938;-92
2022/07/15 01:45:34;;;;;;;1.38;0.40;;;16.10;91.50;;;;;;10001219;28;20053;-91
2022/07/15 01:50:40;;;;;;;3.38;0.30;;;15.90;91.90;;;;;;10076846;28;20031;-92
2022/07/15 01:56:32;;;;;;;1.58;0.30;;;15.60;92.50;;;;;;10026545;28;20455;-93
2022/07/15 02:01:49;;;;;;;0.40;0.28;;;15.60;92.70;;;;;;10096585;28;20291;-89
2022/07/15 02:06:51;;;;;;;1.42;0.35;;;15.50;93.50;;;;;;10282581;28;20061;-89
2022/07/15 02:11:53;;;;;;;3.63;0.50;;;15.40;93.80;;;;;;10302979;28;20417;-89
2022/07/15 02:16:55;;;;;;;2.92;0.52;;;15.40;94.00;;;;;;10296704;28;20061;-88
2022/07/15 02:21:57;;;;;;;0.50;0.30;;;15.40;94.60;;;;;;10071728;28;20061;-92
2022/07/15 02:26:59;;;;;;;1.48;0.40;;;15.40;94.80;;;;;;10109130;28;20047;-92
2022/07/15 02:32:05;;;;;;;3.08;0.40;;;15.40;94.60;;;;;;10080717;28;20102;-92
2022/07/15 02:37:09;;;;;;;8.18;0.50;;;15.50;95.30;;;;;;10132109;28;20537;-92
2022/07/15 02:42:13;;;;;;;2.13;0.35;;;15.40;95.40;;;;;;10090257;28;20055;-92
2022/07/15 02:47:20;;;;;;;0.90;0.22;;;15.50;95.80;;;;;;10013886;28;20098;-92
2022/07/15 02:52:23;;;;;;;1.30;0.75;;;15.50;95.70;;;;;;10000913;28;20051;-92
2022/07/15 02:57:25;;;;;;;0.57;0.40;;;15.60;95.50;;;;;;10195534;28;20064;-92
2022/07/15 03:02:33;;;;;;;0.88;0.40;;;15.60;95.40;;;;;;10096884;28;20641;-92
2022/07/15 03:07:42;;;;;;;1.17;0.30;;;15.50;96.10;;;;;;9993197;28;20048;-92
2022/07/15 03:13:12;;;;;;;2.33;0.40;;;15.50;96.30;;;;;;10148942;28;20572;-91
2022/07/15 03:18:17;;;;;;;1.23;0.38;;;15.40;96.70;;;;;;9963853;28;20064;-91
2022/07/15 03:23:34;;;;;;;2.03;0.30;;;15.40;96.30;;;;;;10019528;28;20124;-91
2022/07/15 03:28:57;;;;;;;0.70;0.40;;;15.30;96.30;;;;;;10023099;28;20066;-92
2022/07/15 03:34:14;;;;;;;5.05;0.40;;;15.20;96.70;;;;;;10254155;28;20065;-91
2022/07/15 03:39:16;;;;;;;1.33;0.57;;;15.20;97.10;;;;;;10317050;28;20050;-92
2022/07/15 03:44:18;;;;;;;4.68;0.57;;;15.10;97.10;;;;;;10270581;28;20074;-91
2022/07/15 03:49:20;;;;;;;8.50;0.70;;;15.10;97.40;;;;;;10274503;28;20060;-92
2022/07/15 03:54:21;;;;;;;4.50;0.50;;;15.00;97.70;;;;;;10268932;28;20564;-91
2022/07/15 03:59:23;;;;;;;3.58;0.50;;;15.00;98.10;;;;;;10275156;28;20050;-92
2022/07/15 04:04:25;;;;;;;3.90;0.82;;;15.10;98.10;;;;;;10282098;28;20046;-92
2022/07/15 04:09:27;;;;;;;2.58;0.45;;;15.10;98.20;;;;;;10287515;28;20063;-91
2022/07/15 04:14:29;;;;;;;3.65;0.30;;;15.20;98.20;;;;;;10284232;28;20412;-91
2022/07/15 04:19:31;;;;;;;1.95;0.40;;;15.10;98.00;;;;;;10278278;28;20125;-90
2022/07/15 04:24:33;;;;;;;2.25;0.40;;;15.20;98.60;;;;;;10289256;28;20133;-91
2022/07/15 04:29:35;;;;;;;1.25;0.45;;;15.20;98.30;;;;;;10290901;28;20058;-91
2022/07/15 04:34:37;;;;;;;3.22;0.30;;;15.20;98.10;;;;;;10292702;28;20126;-91
2022/07/15 04:39:39;;;;;;;0.80;0.47;;;15.30;98.10;;;;;;10279044;28;20409;-91
2022/07/15 04:44:41;;;;;;;2.10;0.30;;;15.30;97.90;;;;;;10286803;28;20717;-91
2022/07/15 04:55:04;;;;;;;3.70;0.40;;;15.30;98.30;;;;;;10303618;28;20426;-93
2022/07/15 05:00:07;;;;;;;1.85;0.60;;;15.40;98.50;;;;;;10299165;28;20054;-93
2022/07/15 05:05:09;;;;;;;5.00;0.40;;;15.50;98.50;;;;;;10266678;28;20057;-93
2022/07/15 05:10:19;;;;;;;3.75;0.75;;;15.60;98.40;;;;;;10193508;28;20036;-92
2022/07/15 05:15:21;;;;;;;2.22;0.30;;;15.80;98.40;;;;;;10286094;28;20039;-92
2022/07/15 05:20:23;;;;;;;0.30;0.20;;;15.90;98.40;;;;;;10247402;28;20090;-93
2022/07/15 05:25:25;;;;;;;1.92;0.30;;;16.10;98.40;;;;;;10276292;28;20054;-92
2022/07/15 05:30:27;;;;;;;2.20;0.30;;;16.20;98.30;;;;;;10278073;28;20133;-91
2022/07/15 05:35:30;;;;;;;0.70;0.30;;;16.30;98.30;;;;;;10252123;28;20478;-93
2022/07/15 05:40:49;;;;;;;0.68;0.20;;;16.40;98.40;;;;;;10269538;28;20038;-91
2022/07/15 05:45:53;;;;;;;1.85;0.45;;;16.60;98.10;;;;;;10300130;28;20145;-92
2022/07/15 05:50:55;;;;;;;3.65;0.40;;;16.80;98.10;;;;;;10287237;28;20138;-91
2022/07/15 05:55:58;;;;;;;1.95;0.30;;;16.90;97.80;;;;;;10291527;28;20046;-91
2022/07/15 06:01:00;;;;;;;0.77;0.30;;;17.10;97.90;;;;;;10307156;28;20127;-90
2022/07/15 06:06:04;;;;;;;1.30;0.30;;;17.30;98.10;;;;;;10272529;28;20097;-90
2022/07/15 06:11:08;;;;;;;1.35;0.28;;;17.40;97.90;;;;;;10326369;28;20145;-91
2022/07/15 06:16:10;;;;;;;1.08;0.17;;;17.60;97.70;;;;;;10284311;28;20054;-90
2022/07/15 06:21:12;;;;;;;4.70;0.20;;;17.80;97.70;;;;;;10282887;28;20050;-92
2022/07/15 06:26:14;;;;;;;2.30;0.20;;;18.00;97.50;;;;;;10291156;28;20046;-92
2022/07/15 06:31:16;;;;;;;1.27;0.20;;;18.10;97.50;;;;;;10292385;28;20038;-92
2022/07/15 06:36:19;;;;;;;1.30;0.30;;;18.10;97.50;;;;;;10299053;28;20098;-91
2022/07/15 06:41:24;;;;;;;4.90;0.20;;;18.10;97.50;;;;;;10271276;28;20588;-92
2022/07/15 06:46:31;;;;;;;5.15;0.47;;;18.10;97.30;;;;;;10299202;28;20520;-92
2022/07/15 06:51:33;;;;;;;2.83;0.38;;;18.20;97.20;;;;;;10306873;28;20046;-93
2022/07/15 06:56:35;;;;;;;3.03;0.30;;;18.30;97.60;;;;;;10281395;28;20042;-91
2022/07/15 07:01:39;;;;;;;2.85;0.47;;;18.40;97.60;;;;;;10277379;28;20210;-91
2022/07/15 07:06:41;;;;;;;0.45;0.20;;;18.50;97.10;;;;;;10285171;28;20038;-92
2022/07/15 07:11:43;;;;;;;0.95;0.30;;;18.70;97.10;;;;;;10285729;28;20069;-92
2022/07/15 07:16:45;;;;;;;1.70;0.25;;;18.60;96.90;;;;;;10269119;28;20046;-92
2022/07/15 07:21:47;;;;;;;1.90;0.30;;;18.60;96.80;;;;;;10286537;28;20112;-90
2022/07/15 07:26:49;;;;;;;4.05;0.50;;;18.70;96.70;;;;;;10278123;28;20057;-88
2022/07/15 07:31:51;;;;;;;3.05;0.40;;;18.80;96.80;;;;;;10322845;28;20061;-86
2022/07/15 07:36:54;;;;;;;3.75;0.35;;;18.90;96.30;;;;;;10309874;28;20054;-85
2022/07/15 07:41:56;;;;;;;1.45;0.30;;;19.20;96.20;;;;;;10293421;28;20047;-86
2022/07/15 07:46:58;;;;;;;0.70;0.20;;;19.20;95.70;;;;;;10288860;28;20496;-86
2022/07/15 07:52:01;;;;;;;3.58;0.40;;;19.40;96.30;;;;;;10309088;28;20055;-86
2022/07/15 07:57:03;;;;;;;3.03;0.20;;;19.20;95.80;;;;;;10280576;28;20489;-85
2022/07/15 08:02:05;;;;;;;2.30;0.20;;;19.30;96.00;;;;;;10298762;28;20038;-83
2022/07/15 08:07:07;;;;;;;4.05;0.55;;;19.50;96.00;;;;;;10295994;28;20051;-83
2022/07/15 08:12:09;;;;;;;3.55;0.30;;;19.70;96.10;;;;;;10286124;28;20216;-83
2022/07/15 08:17:11;;;;;;;4.22;0.40;;;19.90;94.80;;;;;;10300685;28;20042;-85
2022/07/15 08:22:14;;;;;;;1.35;0.40;;;20.30;95.40;;;;;;10293514;28;20059;-86
2022/07/15 08:27:17;;;;;;;3.35;0.50;;;20.60;94.10;;;;;;10293898;28;20051;-85
2022/07/15 08:32:19;;;;;;;7.43;0.55;;;20.80;92.60;;;;;;10315931;28;20160;-86
2022/07/15 08:37:24;;;;;;;0.63;0.35;;;21.00;91.80;;;;;;10288211;28;20043;-86
2022/07/15 08:42:26;;;;;;;2.00;0.40;;;21.00;91.20;;;;;;10304865;28;20034;-86
2022/07/15 08:47:31;;;;;;;3.30;0.40;;;20.70;90.70;;;;;;10274187;28;20050;-86
2022/07/15 08:52:55;;;;;;;4.20;0.40;;;20.60;90.00;;;;;;10301666;28;20054;-86
2022/07/15 08:57:57;;;;;;;2.38;0.57;;;20.90;90.30;;;;;;10292205;28;20066;-86
2022/07/15 09:03:01;;;;;;;1.65;0.47;;;20.80;87.50;;;;;;10280448;28;20085;-86
2022/07/15 09:08:14;;;;;;;1.70;0.75;;;20.50;87.80;;;;;;10313593;28;20064;-86
2022/07/15 09:13:33;;;;;;;2.53;0.50;;;20.40;88.40;;;;;;10309753;28;20069;-87
2022/07/15 09:18:38;;;;;;;5.75;0.85;;;20.40;87.70;;;;;;10282839;28;20050;-83
2022/07/15 09:23:40;;;;;;;3.20;0.70;;;20.70;85.70;;;;;;10334959;28;20065;-85
2022/07/15 09:28:44;;;;;;;1.02;0.52;;;20.50;84.90;;;;;;10289494;28;20058;-86
2022/07/15 09:33:49;;;;;;;2.58;0.60;;;20.80;85.30;;;;;;10275129;28;20061;-86
2022/07/15 09:38:53;;;;;;;3.35;0.75;;;20.60;85.10;;;;;;10306051;28;20064;-85
2022/07/15 09:43:59;;;;;;;2.97;0.60;;;20.60;86.30;;;;;;10309875;28;20113;-86
2022/07/15 09:49:01;;;;;;;3.95;0.60;;;21.00;82.70;;;;;;10310224;28;20115;-86
2022/07/15 09:54:04;;;;;;;1.30;0.40;;;21.10;81.60;;;;;;10305122;28;20416;-86
2022/07/15 09:59:08;;;;;;;1.70;0.50;;;20.90;82.10;;;;;;10293858;28;20081;-87
2022/07/15 10:04:10;;;;;;;4.07;0.50;;;21.10;84.10;;;;;;10307216;28;20084;-87
2022/07/15 10:09:12;;;;;;;2.20;1.02;;;20.70;82.40;;;;;;10286388;28;20050;-87
2022/07/15 10:14:45;;;;;;;1.80;0.50;;;20.80;82.50;;;;;;10299786;28;20058;-87
2022/07/15 10:20:08;;;;;;;0.73;0.55;;;21.30;82.10;;;;;;10289678;28;20085;-88
2022/07/15 10:25:31;;;;;;;4.28;0.80;;;21.60;80.50;;;;;;10291811;28;20047;-86
2022/07/15 10:30:33;;;;;;;1.65;0.50;;;21.80;81.50;;;;;;10296319;28;20074;-87
2022/07/15 10:35:52;;;;;;;2.63;0.60;;;21.90;79.40;;;;;;10303334;28;20585;-89
2022/07/15 10:41:00;;;;;;;4.75;0.60;;;21.50;80.20;;;;;;10308618;28;20133;-90
2022/07/15 10:46:25;;;;;;;2.97;0.80;;;21.60;83.20;;;;;;10292448;28;20060;-89
2022/07/15 10:51:48;;;;;;;1.90;0.50;;;21.90;80.10;;;;;;10279370;28;20402;-89
2022/07/15 10:56:51;;;;;;;0.70;0.60;;;21.90;79.10;;;;;;10286079;28;20057;-90
2022/07/15 11:02:02;;;;;;;0.95;0.40;;;21.80;78.30;;;;;;10287457;28;20060;-90
2022/07/15 11:07:09;;;;;;;1.08;0.40;;;21.60;76.80;;;;;;10297238;28;20152;-90
2022/07/15 11:12:11;;;;;;;0.50;0.30;;;21.90;77.50;;;;;;10289365;28;20078;-91
2022/07/15 11:17:19;;;;;;;1.45;0.50;;;21.40;80.00;;;;;;10292756;28;20093;-90
2022/07/15 11:22:23;;;;;;;1.20;0.35;;;21.40;80.50;;;;;;10301858;28;20125;-89
2022/07/15 11:27:25;;;;;;;1.02;0.50;;;21.70;79.90;;;;;;10301670;28;20053;-90
2022/07/15 11:32:29;;;;;;;2.10;0.45;;;21.80;79.50;;;;;;10283706;28;20098;-89
2022/07/15 11:37:33;;;;;;;2.92;0.60;;;21.70;78.40;;;;;;10304269;28;20054;-89
2022/07/15 11:47:56;;;;;;;1.42;0.50;;;21.40;77.10;;;;;;10307826;28;20050;-90
2022/07/15 11:52:59;;;;;;;3.40;0.40;;;21.80;75.70;;;;;;10288430;28;20065;-90
2022/07/15 11:58:01;;;;;;;0.90;0.40;;;22.10;74.50;;;;;;10301345;28;20050;-90
2022/07/15 12:03:08;;;;;;;1.38;0.40;;;22.70;73.30;;;;;;10319432;28;20050;-89
2022/07/15 12:08:10;;;;;;;1.23;0.65;;;22.60;72.60;;;;;;10317607;28;20136;-89
2022/07/15 12:13:12;;;;;;;0.70;0.30;;;23.30;72.00;;;;;;10311558;28;20054;-89
2022/07/15 12:18:14;;;;;;;1.15;0.40;;;23.70;70.70;;;;;;10331205;28;20050;-89
2022/07/15 12:23:17;;;;;;;0.88;0.40;;;23.40;69.00;;;;;;10309944;28;20469;-89
2022/07/15 12:28:30;;;;;;;0.82;0.30;;;24.10;69.90;;;;;;10305747;28;20053;-90
2022/07/15 12:33:35;;;;;;;1.60;0.25;;;24.40;67.40;;;;;;10289848;28;20054;-89
2022/07/15 12:38:37;;;;;;;0.60;0.40;;;25.00;66.10;;;;;;10314191;28;20058;-90
2022/07/15 12:43:59;;;;;;;1.33;0.40;;;25.20;63.20;;;;;;10313697;28;20056;-91
2022/07/15 12:49:01;;;;;;;2.10;0.30;;;25.30;62.40;;;;;;10307431;28;20046;-91
2022/07/15 12:54:05;;;;;;;1.40;0.20;;;25.10;61.70;;;;;;10307394;28;20107;-91
2022/07/15 12:59:07;;;;;;;3.05;0.30;;;24.80;63.10;;;;;;10296112;28;20065;-90
2022/07/15 13:04:09;;;;;;;1.27;0.20;;;25.20;62.80;;;;;;10315746;28;20094;-90
2022/07/15 13:09:11;;;;;;;1.08;0.30;;;25.00;62.10;;;;;;10293932;28;20049;-90
2022/07/15 13:14:12;;;;;;;0.45;0.20;;;25.00;61.10;;;;;;10294137;28;20404;-90
2022/07/15 13:19:15;;;;;;;1.40;0.30;;;25.20;60.70;;;;;;10282575;28;20090;-89
2022/07/15 13:24:17;;;;;;;0.52;0.20;;;25.20;60.70;;;;;;10286337;28;20050;-88
2022/07/15 13:29:20;;;;;;;1.77;0.22;;;25.50;60.50;;;;;;10253345;28;20065;-88
2022/07/15 13:34:22;;;;;;;1.13;0.30;;;25.20;59.50;;;;;;10284839;28;20480;-90
2022/07/15 13:39:24;;;;;;;0.65;0.10;;;25.70;61.50;;;;;;10279854;28;20456;-89
2022/07/15 13:44:26;;;;;;;0.17;0.10;;;25.80;59.10;;;;;;10285931;28;20063;-89
2022/07/15 13:54:49;;;;;;;0.40;0.20;;;25.50;58.70;;;;;;10294104;28;20065;-87
2022/07/15 13:59:51;;;;;;;0.90;0.22;;;25.10;57.60;;;;;;10284423;28;20523;-88
2022/07/15 14:04:52;;;;;;;1.60;0.20;;;25.60;57.50;;;;;;10280900;28;20688;-90
2022/07/15 14:09:54;;;;;;;0.40;0.30;;;25.60;57.10;;;;;;10281538;28;20121;-89
2022/07/15 14:14:57;;;;;;;2.67;0.10;;;25.40;56.40;;;;;;10301054;28;20054;-88
2022/07/15 14:20:00;;;;;;;1.15;0.20;;;25.90;56.70;;;;;;10293291;28;20739;-88
2022/07/15 14:25:04;;;;;;;0.40;0.20;;;26.00;57.20;;;;;;10265212;28;20141;-89
2022/07/15 14:30:07;;;;;;;1.38;0.20;;;26.20;56.10;;;;;;10294027;28;20106;-88
2022/07/15 14:35:10;;;;;;;1.83;0.13;;;25.70;56.40;;;;;;10277517;28;20146;-89
2022/07/15 14:40:13;;;;;;;0.10;0.10;;;26.00;57.30;;;;;;10283697;28;20128;-89
2022/07/15 14:45:15;;;;;;;0.60;0.30;;;26.00;56.30;;;;;;10284675;28;20063;-88
2022/07/15 14:50:17;;;;;;;2.60;0.20;;;26.40;55.70;;;;;;10291396;28;20126;-88
2022/07/15 14:55:24;;;;;;;0.70;0.20;;;26.00;56.20;;;;;;10281099;28;20069;-90
2022/07/15 15:00:33;;;;;;;1.70;0.20;;;26.60;54.40;;;;;;10263383;28;20105;-89
2022/07/15 15:05:35;;;;;;;0.40;0.20;;;27.00;54.20;;;;;;10261005;28;20069;-89
2022/07/15 15:10:37;;;;;;;0.30;0.10;;;26.70;54.70;;;;;;10287091;28;20125;-91
2022/07/15 15:15:39;;;;;;;2.13;0.15;;;26.60;53.90;;;;;;10267312;28;20529;-92
2022/07/15 15:20:43;;;;;;;0.32;0.15;;;26.60;53.70;;;;;;10280975;28;20186;-93
2022/07/15 15:31:07;;;;;;;0.40;0.10;;;26.60;52.90;;;;;;10296220;28;19930;-92
2022/07/15 15:36:09;;;;;;;1.02;0.10;;;26.40;54.40;;;;;;10294061;28;20085;-94
2022/07/15 15:41:12;;;;;;;1.33;0.20;;;26.00;54.80;;;;;;10179977;28;20151;-92
2022/07/15 15:46:14;;;;;;;2.55;0.20;;;25.90;54.40;;;;;;10290813;28;20137;-92
2022/07/15 15:51:17;;;;;;;0.38;0.30;;;26.80;54.40;;;;;;10246774;28;20061;-93
2022/07/15 15:56:19;;;;;;;0.55;0.10;;;27.00;54.20;;;;;;10273067;28;20361;-93
2022/07/15 16:01:22;;;;;;;0.63;0.20;;;26.90;52.80;;;;;;10274034;28;20062;-92
2022/07/15 16:06:29;;;;;;;1.83;0.20;;;26.90;53.10;;;;;;10238103;28;20065;-93
2022/07/15 16:11:34;;;;;;;0.70;0.17;;;26.70;53.30;;;;;;10248703;28;20046;-92
2022/07/15 16:16:37;;;;;;;1.60;0.22;;;27.10;53.30;;;;;;10265143;28;20042;-92
2022/07/15 16:27:02;;;;;;;0.90;0.20;;;26.80;52.50;;;;;;10290272;28;20064;-92
2022/07/15 16:32:04;;;;;;;0.95;0.20;;;26.70;52.70;;;;;;10299831;28;20053;-90
2022/07/15 16:37:06;;;;;;;3.30;0.20;;;26.90;52.60;;;;;;10282519;28;20078;-93
2022/07/15 16:42:08;;;;;;;2.60;0.20;;;27.10;52.10;;;;;;10296695;28;20141;-92
2022/07/15 16:47:10;;;;;;;4.28;0.30;;;27.80;52.20;;;;;;10301592;28;20736;-92
2022/07/15 16:52:12;;;;;;;1.88;0.30;;;27.40;51.50;;;;;;10290518;28;20042;-92
2022/07/15 16:57:14;;;;;;;0.98;0.20;;;27.40;51.20;;;;;;10306051;28;20108;-93
2022/07/15 17:02:16;;;;;;;0.20;0.10;;;27.50;51.20;;;;;;10288220;28;20042;-93
2022/07/15 17:07:18;;;;;;;1.27;0.20;;;27.50;52.10;;;;;;10279126;28;20039;-93
2022/07/15 17:12:30;;;;;;;1.42;0.20;;;26.90;51.60;;;;;;10201372;28;20066;-92
2022/07/15 17:17:33;;;;;;;2.60;0.20;;;26.90;51.50;;;;;;10279069;28;20053;-92
2022/07/15 17:22:46;;;;;;;0.50;0.10;;;26.50;51.40;;;;;;10153989;28;20031;-92
2022/07/15 17:27:59;;;;;;;1.58;0.20;;;26.90;51.30;;;;;;10267833;28;20051;-92
2022/07/15 17:33:01;;;;;;;1.75;0.20;;;26.50;51.20;;;;;;10245038;28;20110;-92
2022/07/15 17:38:23;;;;;;;3.20;0.20;;;26.40;51.20;;;;;;10276057;28;20086;-92
2022/07/15 17:43:25;;;;;;;0.90;0.17;;;26.40;51.40;;;;;;10187415;28;20488;-91
2022/07/15 17:48:31;;;;;;;4.55;0.20;;;26.00;52.00;;;;;;10296063;28;20074;-91
2022/07/15 17:53:33;;;;;;;5.88;0.22;;;25.50;52.80;;;;;;10179144;28;20046;-91
2022/07/15 17:58:35;;;;;;;2.83;0.20;;;25.80;53.50;;;;;;10266977;28;20057;-91
2022/07/15 18:03:37;;;;;;;1.02;0.20;;;26.20;52.80;;;;;;10270518;28;20054;-91
2022/07/15 18:08:39;;;;;;;2.42;0.30;;;26.80;52.30;;;;;;10308079;28;20054;-90
2022/07/15 18:13:41;;;;;;;0.95;0.20;;;26.20;52.30;;;;;;10248614;28;20043;-91
2022/07/15 18:18:43;;;;;;;3.35;0.32;;;26.10;52.20;;;;;;10286591;28;20065;-92
2022/07/15 18:23:48;;;;;;;1.75;0.10;;;25.30;53.00;;;;;;10302062;28;20054;-92
2022/07/15 18:28:50;;;;;;;3.20;0.30;;;24.60;53.80;;;;;;10295379;28;20060;-92
2022/07/15 18:33:52;;;;;;;3.08;0.20;;;24.10;55.00;;;;;;10273507;28;20137;-90
2022/07/15 18:38:59;;;;;;;1.08;0.20;;;23.70;56.20;;;;;;10259451;28;20106;-91
2022/07/15 18:44:02;;;;;;;1.48;0.40;;;23.30;57.20;;;;;;10274524;28;20145;-91
2022/07/15 18:49:03;;;;;;;6.07;0.60;;;22.70;58.10;;;;;;10281925;28;20133;-90
2022/07/15 18:54:05;;;;;;;7.35;0.45;;;22.60;59.60;;;;;;10277658;28;20050;-90
2022/07/15 18:59:07;;;;;;;3.75;0.30;;;22.40;59.40;;;;;;10281603;28;20062;-88
2022/07/15 19:04:09;;;;;;;1.15;0.10;;;22.20;60.00;;;;;;10316076;28;20082;-89
2022/07/15 19:09:12;;;;;;;1.70;0.22;;;21.90;61.10;;;;;;10306276;28;20056;-89
2022/07/15 19:14:14;;;;;;;1.20;0.32;;;21.60;61.50;;;;;;10315485;28;20050;-90
2022/07/15 19:19:18;;;;;;;1.15;0.35;;;21.50;62.20;;;;;;10305670;28;20054;-88
2022/07/15 19:24:23;;;;;;;0.80;0.20;;;21.20;62.90;;;;;;10294380;28;20101;-89
2022/07/15 19:29:26;;;;;;;2.77;0.20;;;21.10;63.80;;;;;;10284292;28;20060;-89
2022/07/15 19:34:29;;;;;;;0.38;0.20;;;20.90;64.80;;;;;;10299345;28;20046;-89
2022/07/15 19:39:31;;;;;;;0.28;0.20;;;20.70;65.00;;;;;;10303861;28;20034;-89
2022/07/15 19:44:34;;;;;;;1.15;0.20;;;20.70;65.80;;;;;;10305138;28;20030;-90
2022/07/15 19:49:36;;;;;;;2.47;0.30;;;20.50;66.20;;;;;;10289746;28;20063;-90
2022/07/15 19:54:38;;;;;;;1.63;0.40;;;20.40;66.80;;;;;;10295328;28;20050;-89
2022/07/15 20:05:04;;;;;;;2.28;0.30;;;20.00;68.20;;;;;;10311529;28;20050;-89
2022/07/15 20:10:07;;;;;;;1.20;0.30;;;19.90;69.20;;;;;;10297403;28;20101;-89
2022/07/15 20:15:18;;;;;;;0.70;0.40;;;19.80;69.50;;;;;;10190730;28;20146;-90
2022/07/15 20:20:24;;;;;;;1.38;0.30;;;19.70;70.20;;;;;;10285365;28;20051;-90
2022/07/15 20:25:28;;;;;;;2.03;0.30;;;19.50;70.30;;;;;;10274016;28;20054;-91
2022/07/15 20:30:30;;;;;;;1.00;0.20;;;19.30;71.00;;;;;;10273433;28;20051;-90
2022/07/15 20:35:38;;;;;;;1.33;0.30;;;19.20;71.90;;;;;;10287150;28;20480;-91
2022/07/15 20:40:40;;;;;;;3.72;0.40;;;19.00;72.50;;;;;;10295925;28;20046;-90
2022/07/15 20:45:42;;;;;;;3.65;0.40;;;18.80;72.90;;;;;;10299497;28;20065;-92
2022/07/15 20:50:46;;;;;;;0.43;0.30;;;18.70;73.50;;;;;;10308854;28;20054;-92
2022/07/15 20:55:49;;;;;;;1.08;0.40;;;18.60;73.80;;;;;;10130591;28;20066;-91
2022/07/15 21:01:00;;;;;;;1.80;0.50;;;18.50;74.10;;;;;;9992284;28;20055;-91
2022/07/15 21:06:37;;;;;;;0.88;0.50;;;18.50;74.50;;;;;;10125959;28;20059;-92
2022/07/15 21:11:51;;;;;;;1.25;0.32;;;18.50;75.00;;;;;;10172923;28;20090;-91
2022/07/15 21:16:56;;;;;;;2.75;0.30;;;18.40;75.70;;;;;;10133839;28;21807;-91
2022/07/15 21:22:21;;;;;;;5.65;0.40;;;18.40;77.10;;;;;;9986882;28;20047;-91
2022/07/15 21:27:31;;;;;;;0.55;0.30;;;18.30;77.20;;;;;;9911412;28;21649;-91
2022/07/15 21:32:48;;;;;;;2.72;0.40;;;18.10;77.70;;;;;;10107226;28;20311;-91
2022/07/15 21:37:50;;;;;;;1.08;0.57;;;18.10;78.30;;;;;;10172889;28;20062;-91
2022/07/15 21:42:57;;;;;;;2.42;0.40;;;17.90;78.40;;;;;;10165375;28;20452;-90
2022/07/15 21:48:00;;;;;;;2.15;0.40;;;17.90;78.50;;;;;;10175560;28;20049;-91
2022/07/15 21:53:03;;;;;;;3.60;0.60;;;17.70;78.90;;;;;;10123384;28;20046;-90
2022/07/15 21:58:06;;;;;;;1.60;0.30;;;17.60;79.30;;;;;;10175067;28;20038;-91
2022/07/15 22:03:11;;;;;;;3.03;0.50;;;17.50;79.50;;;;;;10082083;28;20557;-90
2022/07/15 22:08:16;;;;;;;1.17;0.50;;;17.50;80.10;;;;;;10267168;28;20077;-90
2022/07/15 22:13:37;;;;;;;3.13;0.40;;;17.40;80.90;;;;;;10212313;28;20077;-92
2022/07/15 22:18:40;;;;;;;1.65;0.40;;;17.20;81.00;;;;;;10244546;28;20098;-91
2022/07/15 22:23:43;;;;;;;1.30;0.40;;;17.10;81.70;;;;;;10266043;28;20436;-91
2022/07/15 22:28:45;;;;;;;2.10;0.40;;;16.90;82.80;;;;;;10278698;28;20057;-91
2022/07/15 22:33:47;;;;;;;1.48;0.40;;;16.70;83.90;;;;;;10297405;28;20129;-91
2022/07/15 22:38:49;;;;;;;5.80;0.43;;;16.70;83.70;;;;;;10294039;28;20544;-92
2022/07/15 22:43:51;;;;;;;1.05;0.40;;;16.60;84.20;;;;;;10275455;28;20492;-92
2022/07/15 22:48:53;;;;;;;3.03;0.50;;;16.50;86.00;;;;;;10294171;28;20186;-92
2022/07/15 22:53:55;;;;;;;1.02;0.30;;;16.50;85.20;;;;;;10275872;28;20511;-92
2022/07/15 22:58:57;;;;;;;1.55;0.40;;;16.40;85.50;;;;;;10302966;28;20070;-92
2022/07/15 23:03:58;;;;;;;2.53;0.47;;;16.40;86.60;;;;;;10291215;28;20069;-92
2022/07/15 23:09:01;;;;;;;0.40;0.40;;;16.30;87.30;;;;;;10270176;28;20039;-91
2022/07/15 23:14:03;;;;;;;2.35;0.40;;;16.20;88.10;;;;;;10282921;28;20133;-91
2022/07/15 23:19:05;;;;;;;3.17;0.52;;;16.00;88.80;;;;;;10270994;28;20122;-90
2022/07/15 23:24:07;;;;;;;3.70;0.60;;;15.90;90.10;;;;;;10280728;28;20112;-91
2022/07/15 23:29:18;;;;;;;2.08;0.40;;;15.80;90.60;;;;;;10239085;28;20062;-91
2022/07/15 23:34:20;;;;;;;1.65;0.70;;;15.80;90.70;;;;;;10275358;28;20073;-91
2022/07/15 23:39:22;;;;;;;0.93;0.45;;;15.70;91.30;;;;;;10263201;28;20054;-91
2022/07/15 23:44:24;;;;;;;1.05;0.60;;;15.70;91.90;;;;;;10259768;28;20046;-91
2022/07/15 23:49:28;;;;;;;2.22;0.73;;;15.60;92.50;;;;;;10289197;28;20065;-91
2022/07/15 23:55:01;;;;;;;1.77;0.77;;;15.60;93.20;;;;;;10195513;28;20101;-92
